sensor_id;sensor_type;location;lat;lon;timestamp;temperature;humidity
19180;DHT22;9722;48.754;8.868;2023-04-24T00:00:30;11.20;96.30
19180;DHT22;9722;48.754;8.868;2023-04-24T00:03:51;11.20;96.20
19180;DHT22;9722;48.754;8.868;2023-04-24T00:07:12;11.20;96.00
19180;DHT22;9722;48.754;8.868;2023-04-24T00:10:33;11.20;95.80
19180;DHT22;9722;48.754;8.868;2023-04-24T00:13:53;11.30;95.60
19180;DHT22;9722;48.754;8.868;2023-04-24T00:17:14;11.30;95.50
19180;DHT22;9722;48.754;8.868;2023-04-24T00:20:35;11.40;95.40
19180;DHT22;9722;48.754;8.868;2023-04-24T00:23:58;11.40;95.20
19180;DHT22;9722;48.754;8.868;2023-04-24T00:27:18;11.40;95.10
19180;DHT22;9722;48.754;8.868;2023-04-24T00:30:40;11.40;94.90
19180;DHT22;9722;48.754;8.868;2023-04-24T00:34:01;11.40;94.70
19180;DHT22;9722;48.754;8.868;2023-04-24T00:37:22;11.50;94.50
19180;DHT22;9722;48.754;8.868;2023-04-24T00:40:43;11.40;94.40
19180;DHT22;9722;48.754;8.868;2023-04-24T00:44:03;11.40;94.40
19180;DHT22;9722;48.754;8.868;2023-04-24T00:47:25;11.60;94.40
19180;DHT22;9722;48.754;8.868;2023-04-24T00:50:45;11.40;94.30
19180;DHT22;9722;48.754;8.868;2023-04-24T00:54:06;11.40;94.20
19180;DHT22;9722;48.754;8.868;2023-04-24T00:57:27;11.50;94.20
19180;DHT22;9722;48.754;8.868;2023-04-24T01:00:48;11.50;94.20
19180;DHT22;9722;48.754;8.868;2023-04-24T01:04:12;11.40;94.10
19180;DHT22;9722;48.754;8.868;2023-04-24T01:07:32;11.50;94.20
19180;DHT22;9722;48.754;8.868;2023-04-24T01:10:53;11.40;94.20
19180;DHT22;9722;48.754;8.868;2023-04-24T01:14:13;11.40;94.30
19180;DHT22;9722;48.754;8.868;2023-04-24T01:17:34;11.40;94.30
19180;DHT22;9722;48.754;8.868;2023-04-24T01:20:59;11.30;94.40
19180;DHT22;9722;48.754;8.868;2023-04-24T01:24:23;11.30;94.50
19180;DHT22;9722;48.754;8.868;2023-04-24T01:27:44;11.30;94.60
19180;DHT22;9722;48.754;8.868;2023-04-24T01:31:05;11.20;94.70
19180;DHT22;9722;48.754;8.868;2023-04-24T01:34:26;11.20;94.80
19180;DHT22;9722;48.754;8.868;2023-04-24T01:37:46;11.10;95.00
19180;DHT22;9722;48.754;8.868;2023-04-24T01:41:07;11.10;95.20
19180;DHT22;9722;48.754;8.868;2023-04-24T01:44:28;11.10;95.40
19180;DHT22;9722;48.754;8.868;2023-04-24T01:47:49;11.00;95.50
19180;DHT22;9722;48.754;8.868;2023-04-24T01:51:10;11.00;95.70
19180;DHT22;9722;48.754;8.868;2023-04-24T01:54:31;10.90;95.80
19180;DHT22;9722;48.754;8.868;2023-04-24T01:57:52;10.90;95.90
19180;DHT22;9722;48.754;8.868;2023-04-24T02:01:21;10.90;96.10
19180;DHT22;9722;48.754;8.868;2023-04-24T02:04:43;10.90;96.10
19180;DHT22;9722;48.754;8.868;2023-04-24T02:08:04;10.90;96.20
19180;DHT22;9722;48.754;8.868;2023-04-24T02:11:25;10.90;96.40
19180;DHT22;9722;48.754;8.868;2023-04-24T02:14:45;10.90;96.60
19180;DHT22;9722;48.754;8.868;2023-04-24T02:18:06;10.90;96.70
19180;DHT22;9722;48.754;8.868;2023-04-24T02:21:27;11.00;96.80
19180;DHT22;9722;48.754;8.868;2023-04-24T02:24:48;10.90;97.80
19180;DHT22;9722;48.754;8.868;2023-04-24T02:28:08;10.70;98.30
19180;DHT22;9722;48.754;8.868;2023-04-24T02:31:29;10.50;99.20
19180;DHT22;9722;48.754;8.868;2023-04-24T02:34:49;10.40;99.80
19180;DHT22;9722;48.754;8.868;2023-04-24T02:38:10;10.30;99.90
19180;DHT22;9722;48.754;8.868;2023-04-24T02:41:30;10.30;99.90
19180;DHT22;9722;48.754;8.868;2023-04-24T02:44:52;10.20;99.90
19180;DHT22;9722;48.754;8.868;2023-04-24T02:48:13;10.10;99.90
19180;DHT22;9722;48.754;8.868;2023-04-24T02:51:33;10.10;99.90
19180;DHT22;9722;48.754;8.868;2023-04-24T02:54:54;10.00;99.90
19180;DHT22;9722;48.754;8.868;2023-04-24T02:58:14;9.90;99.90
19180;DHT22;9722;48.754;8.868;2023-04-24T03:01:36;9.90;99.90
19180;DHT22;9722;48.754;8.868;2023-04-24T03:04:56;9.80;99.90
19180;DHT22;9722;48.754;8.868;2023-04-24T03:08:17;9.70;99.90
19180;DHT22;9722;48.754;8.868;2023-04-24T03:11:38;9.60;99.90
19180;DHT22;9722;48.754;8.868;2023-04-24T03:14:58;9.50;99.90
19180;DHT22;9722;48.754;8.868;2023-04-24T03:18:18;9.50;99.90
19180;DHT22;9722;48.754;8.868;2023-04-24T03:21:39;9.60;99.90
19180;DHT22;9722;48.754;8.868;2023-04-24T03:25:01;9.60;99.90
19180;DHT22;9722;48.754;8.868;2023-04-24T03:28:21;9.60;99.90
19180;DHT22;9722;48.754;8.868;2023-04-24T03:31:42;9.60;99.90
19180;DHT22;9722;48.754;8.868;2023-04-24T03:35:03;9.60;99.90
19180;DHT22;9722;48.754;8.868;2023-04-24T03:38:23;9.50;99.90
19180;DHT22;9722;48.754;8.868;2023-04-24T03:41:44;9.50;99.90
19180;DHT22;9722;48.754;8.868;2023-04-24T03:45:05;9.50;99.90
19180;DHT22;9722;48.754;8.868;2023-04-24T03:48:26;9.40;99.90
19180;DHT22;9722;48.754;8.868;2023-04-24T03:51:46;9.40;99.90
19180;DHT22;9722;48.754;8.868;2023-04-24T03:55:07;9.40;99.90
19180;DHT22;9722;48.754;8.868;2023-04-24T03:58:28;9.40;99.90
19180;DHT22;9722;48.754;8.868;2023-04-24T04:01:48;9.50;99.90
19180;DHT22;9722;48.754;8.868;2023-04-24T04:05:09;9.50;99.90
19180;DHT22;9722;48.754;8.868;2023-04-24T04:08:29;9.60;99.90
19180;DHT22;9722;48.754;8.868;2023-04-24T04:11:50;9.70;99.90
19180;DHT22;9722;48.754;8.868;2023-04-24T04:15:11;9.70;99.90
19180;DHT22;9722;48.754;8.868;2023-04-24T04:18:31;9.60;99.90
19180;DHT22;9722;48.754;8.868;2023-04-24T04:21:52;9.50;99.90
19180;DHT22;9722;48.754;8.868;2023-04-24T04:25:13;9.40;99.90
19180;DHT22;9722;48.754;8.868;2023-04-24T04:28:34;9.30;99.90
19180;DHT22;9722;48.754;8.868;2023-04-24T04:31:55;9.30;99.90
19180;DHT22;9722;48.754;8.868;2023-04-24T04:35:15;9.30;99.90
19180;DHT22;9722;48.754;8.868;2023-04-24T04:38:36;9.20;99.90
19180;DHT22;9722;48.754;8.868;2023-04-24T04:41:57;9.20;99.90
19180;DHT22;9722;48.754;8.868;2023-04-24T04:45:19;9.20;99.90
19180;DHT22;9722;48.754;8.868;2023-04-24T04:48:40;9.20;99.90
19180;DHT22;9722;48.754;8.868;2023-04-24T04:52:01;9.20;99.90
19180;DHT22;9722;48.754;8.868;2023-04-24T04:55:21;9.10;99.90
19180;DHT22;9722;48.754;8.868;2023-04-24T04:58:42;9.00;99.90
19180;DHT22;9722;48.754;8.868;2023-04-24T05:02:02;8.90;99.90
19180;DHT22;9722;48.754;8.868;2023-04-24T05:05:23;8.80;99.90
19180;DHT22;9722;48.754;8.868;2023-04-24T05:08:44;8.80;99.90
19180;DHT22;9722;48.754;8.868;2023-04-24T05:12:04;8.80;99.90
19180;DHT22;9722;48.754;8.868;2023-04-24T05:15:25;8.70;99.90
19180;DHT22;9722;48.754;8.868;2023-04-24T05:18:45;8.70;99.90
19180;DHT22;9722;48.754;8.868;2023-04-24T05:22:06;8.60;99.90
19180;DHT22;9722;48.754;8.868;2023-04-24T05:25:27;8.60;99.90
19180;DHT22;9722;48.754;8.868;2023-04-24T05:28:47;8.60;99.90
19180;DHT22;9722;48.754;8.868;2023-04-24T05:32:08;8.60;99.90
19180;DHT22;9722;48.754;8.868;2023-04-24T05:35:28;8.70;99.90
19180;DHT22;9722;48.754;8.868;2023-04-24T05:38:49;8.70;99.90
19180;DHT22;9722;48.754;8.868;2023-04-24T05:42:09;8.90;99.90
19180;DHT22;9722;48.754;8.868;2023-04-24T05:45:30;9.30;99.90
19180;DHT22;9722;48.754;8.868;2023-04-24T05:48:51;9.60;99.90
19180;DHT22;9722;48.754;8.868;2023-04-24T05:52:11;9.60;99.90
19180;DHT22;9722;48.754;8.868;2023-04-24T05:55:32;9.60;99.90
19180;DHT22;9722;48.754;8.868;2023-04-24T05:58:52;9.70;99.90
19180;DHT22;9722;48.754;8.868;2023-04-24T06:02:13;9.90;99.90
19180;DHT22;9722;48.754;8.868;2023-04-24T06:05:34;10.50;99.90
19180;DHT22;9722;48.754;8.868;2023-04-24T06:08:55;11.20;99.90
19180;DHT22;9722;48.754;8.868;2023-04-24T06:12:15;11.70;99.30
19180;DHT22;9722;48.754;8.868;2023-04-24T06:15:36;12.40;98.00
19180;DHT22;9722;48.754;8.868;2023-04-24T06:18:57;13.10;96.80
19180;DHT22;9722;48.754;8.868;2023-04-24T06:22:17;13.80;95.20
19180;DHT22;9722;48.754;8.868;2023-04-24T06:25:38;14.30;93.30
19180;DHT22;9722;48.754;8.868;2023-04-24T06:28:58;14.30;90.50
19180;DHT22;9722;48.754;8.868;2023-04-24T06:32:24;14.40;90.20
19180;DHT22;9722;48.754;8.868;2023-04-24T06:35:44;15.20;87.80
19180;DHT22;9722;48.754;8.868;2023-04-24T06:39:05;16.00;83.50
19180;DHT22;9722;48.754;8.868;2023-04-24T06:42:25;16.10;77.40
19180;DHT22;9722;48.754;8.868;2023-04-24T06:45:46;15.90;76.20
19180;DHT22;9722;48.754;8.868;2023-04-24T06:49:07;15.60;74.60
19180;DHT22;9722;48.754;8.868;2023-04-24T06:52:27;15.30;75.60
19180;DHT22;9722;48.754;8.868;2023-04-24T06:55:48;15.10;75.60
19180;DHT22;9722;48.754;8.868;2023-04-24T06:59:09;15.00;75.70
19180;DHT22;9722;48.754;8.868;2023-04-24T07:02:29;14.90;75.80
19180;DHT22;9722;48.754;8.868;2023-04-24T07:05:50;14.80;73.50
19180;DHT22;9722;48.754;8.868;2023-04-24T07:09:11;14.70;72.00
19180;DHT22;9722;48.754;8.868;2023-04-24T07:12:33;14.50;70.50
19180;DHT22;9722;48.754;8.868;2023-04-24T07:15:54;14.50;70.60
19180;DHT22;9722;48.754;8.868;2023-04-24T07:19:16;14.70;69.10
19180;DHT22;9722;48.754;8.868;2023-04-24T07:22:39;14.80;68.90
19180;DHT22;9722;48.754;8.868;2023-04-24T07:26:00;14.70;67.40
19180;DHT22;9722;48.754;8.868;2023-04-24T07:29:21;14.70;67.50
19180;DHT22;9722;48.754;8.868;2023-04-24T07:32:41;14.70;67.30
19180;DHT22;9722;48.754;8.868;2023-04-24T07:36:03;14.70;66.30
19180;DHT22;9722;48.754;8.868;2023-04-24T07:39:24;14.80;65.00
19180;DHT22;9722;48.754;8.868;2023-04-24T07:42:45;14.80;62.90
19180;DHT22;9722;48.754;8.868;2023-04-24T07:46:06;14.80;62.50
19180;DHT22;9722;48.754;8.868;2023-04-24T07:49:27;14.90;62.00
19180;DHT22;9722;48.754;8.868;2023-04-24T07:52:48;15.00;61.80
19180;DHT22;9722;48.754;8.868;2023-04-24T07:56:08;15.20;60.90
19180;DHT22;9722;48.754;8.868;2023-04-24T07:59:29;15.60;59.80
19180;DHT22;9722;48.754;8.868;2023-04-24T08:02:49;15.90;59.00
19180;DHT22;9722;48.754;8.868;2023-04-24T08:06:10;16.20;58.30
19180;DHT22;9722;48.754;8.868;2023-04-24T08:09:30;16.20;58.10
19180;DHT22;9722;48.754;8.868;2023-04-24T08:12:51;16.00;58.60
19180;DHT22;9722;48.754;8.868;2023-04-24T08:16:12;15.80;57.60
19180;DHT22;9722;48.754;8.868;2023-04-24T08:19:32;16.20;57.50
19180;DHT22;9722;48.754;8.868;2023-04-24T08:22:53;16.20;57.00
19180;DHT22;9722;48.754;8.868;2023-04-24T08:26:14;15.90;57.20
19180;DHT22;9722;48.754;8.868;2023-04-24T08:29:35;15.60;58.20
19180;DHT22;9722;48.754;8.868;2023-04-24T08:32:56;15.40;58.70
19180;DHT22;9722;48.754;8.868;2023-04-24T08:36:17;15.30;59.10
19180;DHT22;9722;48.754;8.868;2023-04-24T08:39:37;15.70;59.20
19180;DHT22;9722;48.754;8.868;2023-04-24T08:42:59;15.70;59.00
19180;DHT22;9722;48.754;8.868;2023-04-24T08:46:20;15.50;58.80
19180;DHT22;9722;48.754;8.868;2023-04-24T08:49:43;15.10;59.20
19180;DHT22;9722;48.754;8.868;2023-04-24T08:53:04;14.80;60.00
19180;DHT22;9722;48.754;8.868;2023-04-24T08:56:25;14.50;62.00
19180;DHT22;9722;48.754;8.868;2023-04-24T08:59:46;14.20;63.30
19180;DHT22;9722;48.754;8.868;2023-04-24T09:03:07;13.90;64.20
19180;DHT22;9722;48.754;8.868;2023-04-24T09:06:28;13.60;65.20
19180;DHT22;9722;48.754;8.868;2023-04-24T09:09:50;13.30;66.00
19180;DHT22;9722;48.754;8.868;2023-04-24T09:13:11;13.10;66.70
19180;DHT22;9722;48.754;8.868;2023-04-24T09:16:32;13.10;66.80
19180;DHT22;9722;48.754;8.868;2023-04-24T09:19:53;13.30;67.30
19180;DHT22;9722;48.754;8.868;2023-04-24T09:23:17;14.20;67.70
19180;DHT22;9722;48.754;8.868;2023-04-24T09:26:38;15.50;65.10
19180;DHT22;9722;48.754;8.868;2023-04-24T09:30:00;16.00;61.20
19180;DHT22;9722;48.754;8.868;2023-04-24T09:33:20;16.10;59.70
19180;DHT22;9722;48.754;8.868;2023-04-24T09:36:42;16.00;58.20
19180;DHT22;9722;48.754;8.868;2023-04-24T09:40:19;15.80;57.50
19180;DHT22;9722;48.754;8.868;2023-04-24T09:43:40;15.70;57.40
19180;DHT22;9722;48.754;8.868;2023-04-24T09:47:00;15.50;56.40
19180;DHT22;9722;48.754;8.868;2023-04-24T09:50:21;15.20;57.10
19180;DHT22;9722;48.754;8.868;2023-04-24T09:53:46;15.20;56.70
19180;DHT22;9722;48.754;8.868;2023-04-24T09:57:08;15.90;56.40
19180;DHT22;9722;48.754;8.868;2023-04-24T10:00:31;17.30;53.60
19180;DHT22;9722;48.754;8.868;2023-04-24T10:03:51;18.60;51.90
19180;DHT22;9722;48.754;8.868;2023-04-24T10:07:14;19.40;50.90
19180;DHT22;9722;48.754;8.868;2023-04-24T10:10:39;20.20;49.90
19180;DHT22;9722;48.754;8.868;2023-04-24T10:13:59;20.50;46.60
19180;DHT22;9722;48.754;8.868;2023-04-24T10:17:21;20.10;46.30
19180;DHT22;9722;48.754;8.868;2023-04-24T10:20:42;20.10;46.00
19180;DHT22;9722;48.754;8.868;2023-04-24T10:24:02;19.70;46.70
19180;DHT22;9722;48.754;8.868;2023-04-24T10:27:26;19.20;47.00
19180;DHT22;9722;48.754;8.868;2023-04-24T10:30:47;18.70;47.30
19180;DHT22;9722;48.754;8.868;2023-04-24T10:34:09;18.40;47.40
19180;DHT22;9722;48.754;8.868;2023-04-24T10:37:36;18.10;47.50
19180;DHT22;9722;48.754;8.868;2023-04-24T10:41:10;17.80;47.90
19180;DHT22;9722;48.754;8.868;2023-04-24T10:44:37;17.30;48.90
19180;DHT22;9722;48.754;8.868;2023-04-24T10:48:07;16.80;49.40
19180;DHT22;9722;48.754;8.868;2023-04-24T10:55:12;15.80;50.60
19180;DHT22;9722;48.754;8.868;2023-04-24T10:58:41;15.30;51.00
19180;DHT22;9722;48.754;8.868;2023-04-24T11:02:07;14.80;51.60
19180;DHT22;9722;48.754;8.868;2023-04-24T11:05:52;14.60;52.20
19180;DHT22;9722;48.754;8.868;2023-04-24T11:09:15;14.80;52.60
19180;DHT22;9722;48.754;8.868;2023-04-24T11:12:36;15.50;52.80
19180;DHT22;9722;48.754;8.868;2023-04-24T11:19:50;16.60;50.90
19180;DHT22;9722;48.754;8.868;2023-04-24T11:23:12;16.20;51.10
19180;DHT22;9722;48.754;8.868;2023-04-24T11:26:37;15.60;50.80
19180;DHT22;9722;48.754;8.868;2023-04-24T11:30:00;15.00;52.70
19180;DHT22;9722;48.754;8.868;2023-04-24T11:33:21;14.60;54.90
19180;DHT22;9722;48.754;8.868;2023-04-24T11:36:48;15.00;55.70
19180;DHT22;9722;48.754;8.868;2023-04-24T11:40:10;15.70;54.70
19180;DHT22;9722;48.754;8.868;2023-04-24T11:43:32;16.40;53.00
19180;DHT22;9722;48.754;8.868;2023-04-24T11:46:55;16.90;51.20
19180;DHT22;9722;48.754;8.868;2023-04-24T11:50:22;16.60;50.20
19180;DHT22;9722;48.754;8.868;2023-04-24T11:53:42;16.10;50.40
19180;DHT22;9722;48.754;8.868;2023-04-24T11:57:07;15.50;51.30
19180;DHT22;9722;48.754;8.868;2023-04-24T12:00:32;15.00;51.80
19180;DHT22;9722;48.754;8.868;2023-04-24T12:03:59;14.60;52.60
19180;DHT22;9722;48.754;8.868;2023-04-24T12:07:21;14.30;53.00
19180;DHT22;9722;48.754;8.868;2023-04-24T12:10:42;14.20;53.10
19180;DHT22;9722;48.754;8.868;2023-04-24T12:14:11;14.20;53.40
19180;DHT22;9722;48.754;8.868;2023-04-24T12:17:33;14.30;54.00
19180;DHT22;9722;48.754;8.868;2023-04-24T12:20:54;14.50;54.20
19180;DHT22;9722;48.754;8.868;2023-04-24T12:24:14;14.80;53.70
19180;DHT22;9722;48.754;8.868;2023-04-24T12:27:35;15.00;53.20
19180;DHT22;9722;48.754;8.868;2023-04-24T12:30:55;15.00;53.00
19180;DHT22;9722;48.754;8.868;2023-04-24T12:34:25;14.80;52.80
19180;DHT22;9722;48.754;8.868;2023-04-24T12:37:46;14.50;53.80
19180;DHT22;9722;48.754;8.868;2023-04-24T12:41:11;14.30;53.90
19180;DHT22;9722;48.754;8.868;2023-04-24T12:44:33;14.10;54.90
19180;DHT22;9722;48.754;8.868;2023-04-24T12:47:54;13.90;55.60
19180;DHT22;9722;48.754;8.868;2023-04-24T12:51:15;13.80;56.40
19180;DHT22;9722;48.754;8.868;2023-04-24T12:54:35;13.80;56.70
19180;DHT22;9722;48.754;8.868;2023-04-24T12:57:56;13.90;56.80
19180;DHT22;9722;48.754;8.868;2023-04-24T13:01:16;14.00;56.90
19180;DHT22;9722;48.754;8.868;2023-04-24T13:04:37;14.20;56.80
19180;DHT22;9722;48.754;8.868;2023-04-24T13:07:57;15.10;56.50
19180;DHT22;9722;48.754;8.868;2023-04-24T13:11:18;15.90;54.80
19180;DHT22;9722;48.754;8.868;2023-04-24T13:14:38;15.90;53.90
19180;DHT22;9722;48.754;8.868;2023-04-24T13:17:59;15.50;54.00
19180;DHT22;9722;48.754;8.868;2023-04-24T13:21:19;15.10;54.40
19180;DHT22;9722;48.754;8.868;2023-04-24T13:24:40;14.70;55.10
19180;DHT22;9722;48.754;8.868;2023-04-24T13:28:01;14.40;56.70
19180;DHT22;9722;48.754;8.868;2023-04-24T13:31:22;14.00;58.80
19180;DHT22;9722;48.754;8.868;2023-04-24T13:34:42;13.60;60.60
19180;DHT22;9722;48.754;8.868;2023-04-24T13:38:03;14.10;62.50
19180;DHT22;9722;48.754;8.868;2023-04-24T13:41:26;15.90;60.40
19180;DHT22;9722;48.754;8.868;2023-04-24T13:44:46;16.80;57.50
19180;DHT22;9722;48.754;8.868;2023-04-24T13:48:07;16.80;56.90
19180;DHT22;9722;48.754;8.868;2023-04-24T13:51:29;16.50;56.60
19180;DHT22;9722;48.754;8.868;2023-04-24T13:54:50;15.90;57.20
19180;DHT22;9722;48.754;8.868;2023-04-24T13:58:10;15.50;58.00
19180;DHT22;9722;48.754;8.868;2023-04-24T14:01:31;15.30;58.40
19180;DHT22;9722;48.754;8.868;2023-04-24T14:04:51;15.20;58.60
19180;DHT22;9722;48.754;8.868;2023-04-24T14:08:12;15.20;58.80
19180;DHT22;9722;48.754;8.868;2023-04-24T14:11:33;15.30;58.30
19180;DHT22;9722;48.754;8.868;2023-04-24T14:14:54;15.20;57.90
19180;DHT22;9722;48.754;8.868;2023-04-24T14:18:14;15.10;57.30
19180;DHT22;9722;48.754;8.868;2023-04-24T14:21:35;15.00;57.60
19180;DHT22;9722;48.754;8.868;2023-04-24T14:24:55;14.80;57.40
19180;DHT22;9722;48.754;8.868;2023-04-24T14:28:17;14.50;57.90
19180;DHT22;9722;48.754;8.868;2023-04-24T14:31:38;14.50;58.50
19180;DHT22;9722;48.754;8.868;2023-04-24T14:34:58;14.50;58.00
19180;DHT22;9722;48.754;8.868;2023-04-24T14:38:19;14.30;58.30
19180;DHT22;9722;48.754;8.868;2023-04-24T14:41:40;14.10;58.50
19180;DHT22;9722;48.754;8.868;2023-04-24T14:45:01;14.00;58.90
19180;DHT22;9722;48.754;8.868;2023-04-24T14:48:21;14.00;58.90
19180;DHT22;9722;48.754;8.868;2023-04-24T14:51:42;13.90;58.80
19180;DHT22;9722;48.754;8.868;2023-04-24T14:55:03;13.80;59.00
19180;DHT22;9722;48.754;8.868;2023-04-24T14:58:23;13.60;59.00
19180;DHT22;9722;48.754;8.868;2023-04-24T15:01:44;13.50;59.30
19180;DHT22;9722;48.754;8.868;2023-04-24T15:05:05;13.40;59.60
19180;DHT22;9722;48.754;8.868;2023-04-24T15:08:26;13.20;59.30
19180;DHT22;9722;48.754;8.868;2023-04-24T15:11:47;13.00;60.00
19180;DHT22;9722;48.754;8.868;2023-04-24T15:15:08;12.60;63.40
19180;DHT22;9722;48.754;8.868;2023-04-24T15:18:29;12.30;66.00
19180;DHT22;9722;48.754;8.868;2023-04-24T15:21:49;12.20;67.30
19180;DHT22;9722;48.754;8.868;2023-04-24T15:25:10;12.20;68.30
19180;DHT22;9722;48.754;8.868;2023-04-24T15:28:30;12.40;69.50
19180;DHT22;9722;48.754;8.868;2023-04-24T15:31:51;12.50;69.80
19180;DHT22;9722;48.754;8.868;2023-04-24T15:35:11;12.60;70.00
19180;DHT22;9722;48.754;8.868;2023-04-24T15:38:32;12.70;69.60
19180;DHT22;9722;48.754;8.868;2023-04-24T15:41:53;12.90;69.30
19180;DHT22;9722;48.754;8.868;2023-04-24T15:45:13;13.00;69.00
19180;DHT22;9722;48.754;8.868;2023-04-24T15:48:34;12.90;69.70
19180;DHT22;9722;48.754;8.868;2023-04-24T15:51:54;12.90;69.40
19180;DHT22;9722;48.754;8.868;2023-04-24T15:55:15;12.90;69.10
19180;DHT22;9722;48.754;8.868;2023-04-24T15:58:35;13.00;68.10
19180;DHT22;9722;48.754;8.868;2023-04-24T16:01:56;13.00;67.10
19180;DHT22;9722;48.754;8.868;2023-04-24T16:05:17;12.90;66.80
19180;DHT22;9722;48.754;8.868;2023-04-24T16:08:39;12.90;66.70
19180;DHT22;9722;48.754;8.868;2023-04-24T16:11:59;13.00;65.50
19180;DHT22;9722;48.754;8.868;2023-04-24T16:15:20;13.10;64.30
19180;DHT22;9722;48.754;8.868;2023-04-24T16:18:41;13.10;63.20
19180;DHT22;9722;48.754;8.868;2023-04-24T16:22:02;13.10;63.30
19180;DHT22;9722;48.754;8.868;2023-04-24T16:25:23;13.10;61.20
19180;DHT22;9722;48.754;8.868;2023-04-24T16:28:43;13.00;60.50
19180;DHT22;9722;48.754;8.868;2023-04-24T16:32:04;13.00;60.20
19180;DHT22;9722;48.754;8.868;2023-04-24T16:35:24;13.00;59.50
19180;DHT22;9722;48.754;8.868;2023-04-24T16:38:45;13.00;59.50
19180;DHT22;9722;48.754;8.868;2023-04-24T16:42:05;13.00;59.50
19180;DHT22;9722;48.754;8.868;2023-04-24T16:45:26;13.10;59.60
19180;DHT22;9722;48.754;8.868;2023-04-24T16:48:47;13.20;59.70
19180;DHT22;9722;48.754;8.868;2023-04-24T16:52:07;13.10;59.50
19180;DHT22;9722;48.754;8.868;2023-04-24T16:55:28;13.10;59.20
19180;DHT22;9722;48.754;8.868;2023-04-24T16:58:48;12.90;58.60
19180;DHT22;9722;48.754;8.868;2023-04-24T17:02:09;12.70;58.80
19180;DHT22;9722;48.754;8.868;2023-04-24T17:05:30;12.50;59.50
19180;DHT22;9722;48.754;8.868;2023-04-24T17:08:51;12.30;59.60
19180;DHT22;9722;48.754;8.868;2023-04-24T17:12:12;12.10;60.10
19180;DHT22;9722;48.754;8.868;2023-04-24T17:15:32;12.00;60.90
19180;DHT22;9722;48.754;8.868;2023-04-24T17:18:54;11.90;61.80
19180;DHT22;9722;48.754;8.868;2023-04-24T17:22:15;12.00;62.10
19180;DHT22;9722;48.754;8.868;2023-04-24T17:25:35;12.00;62.00
19180;DHT22;9722;48.754;8.868;2023-04-24T17:28:56;12.00;61.70
19180;DHT22;9722;48.754;8.868;2023-04-24T17:32:16;12.10;61.40
19180;DHT22;9722;48.754;8.868;2023-04-24T17:35:37;12.10;61.40
19180;DHT22;9722;48.754;8.868;2023-04-24T17:38:57;12.00;61.50
19180;DHT22;9722;48.754;8.868;2023-04-24T17:42:18;11.90;61.60
19180;DHT22;9722;48.754;8.868;2023-04-24T17:45:38;11.80;61.90
19180;DHT22;9722;48.754;8.868;2023-04-24T17:48:59;11.70;62.40
19180;DHT22;9722;48.754;8.868;2023-04-24T17:52:20;11.70;63.00
19180;DHT22;9722;48.754;8.868;2023-04-24T17:55:41;11.60;63.00
19180;DHT22;9722;48.754;8.868;2023-04-24T17:59:05;11.50;63.30
19180;DHT22;9722;48.754;8.868;2023-04-24T18:02:26;11.40;63.70
19180;DHT22;9722;48.754;8.868;2023-04-24T18:05:46;11.20;64.40
19180;DHT22;9722;48.754;8.868;2023-04-24T18:09:07;11.10;65.20
19180;DHT22;9722;48.754;8.868;2023-04-24T18:12:27;10.90;66.20
19180;DHT22;9722;48.754;8.868;2023-04-24T18:15:48;10.70;67.00
19180;DHT22;9722;48.754;8.868;2023-04-24T18:19:08;10.60;67.90
19180;DHT22;9722;48.754;8.868;2023-04-24T18:22:29;10.60;68.90
19180;DHT22;9722;48.754;8.868;2023-04-24T18:25:49;10.40;69.20
19180;DHT22;9722;48.754;8.868;2023-04-24T18:29:10;10.40;69.80
19180;DHT22;9722;48.754;8.868;2023-04-24T18:32:30;10.40;70.30
19180;DHT22;9722;48.754;8.868;2023-04-24T18:35:51;10.30;70.60
19180;DHT22;9722;48.754;8.868;2023-04-24T18:39:11;10.20;71.10
19180;DHT22;9722;48.754;8.868;2023-04-24T18:42:33;10.10;71.60
19180;DHT22;9722;48.754;8.868;2023-04-24T18:45:53;10.00;72.00
19180;DHT22;9722;48.754;8.868;2023-04-24T18:49:14;9.90;73.50
19180;DHT22;9722;48.754;8.868;2023-04-24T18:52:35;9.90;73.90
19180;DHT22;9722;48.754;8.868;2023-04-24T18:55:55;9.80;74.10
19180;DHT22;9722;48.754;8.868;2023-04-24T18:59:17;9.80;74.80
19180;DHT22;9722;48.754;8.868;2023-04-24T19:02:37;9.60;75.00
19180;DHT22;9722;48.754;8.868;2023-04-24T19:05:58;9.60;75.30
19180;DHT22;9722;48.754;8.868;2023-04-24T19:09:18;9.50;75.70
19180;DHT22;9722;48.754;8.868;2023-04-24T19:12:39;9.40;76.10
19180;DHT22;9722;48.754;8.868;2023-04-24T19:15:59;9.30;76.50
19180;DHT22;9722;48.754;8.868;2023-04-24T19:19:20;9.30;76.90
19180;DHT22;9722;48.754;8.868;2023-04-24T19:22:43;9.30;77.40
19180;DHT22;9722;48.754;8.868;2023-04-24T19:26:03;9.20;77.70
19180;DHT22;9722;48.754;8.868;2023-04-24T19:29:24;9.20;78.20
19180;DHT22;9722;48.754;8.868;2023-04-24T19:32:44;9.20;78.70
19180;DHT22;9722;48.754;8.868;2023-04-24T19:36:05;9.10;79.00
19180;DHT22;9722;48.754;8.868;2023-04-24T19:39:26;9.10;79.40
19180;DHT22;9722;48.754;8.868;2023-04-24T19:42:47;9.00;79.80
19180;DHT22;9722;48.754;8.868;2023-04-24T19:46:08;9.00;80.20
19180;DHT22;9722;48.754;8.868;2023-04-24T19:49:29;8.90;80.20
19180;DHT22;9722;48.754;8.868;2023-04-24T19:52:50;8.90;80.90
19180;DHT22;9722;48.754;8.868;2023-04-24T19:56:10;8.90;81.30
19180;DHT22;9722;48.754;8.868;2023-04-24T19:59:31;8.80;81.60
19180;DHT22;9722;48.754;8.868;2023-04-24T20:02:51;8.80;81.90
19180;DHT22;9722;48.754;8.868;2023-04-24T20:06:12;8.80;82.20
19180;DHT22;9722;48.754;8.868;2023-04-24T20:09:32;8.70;82.30
19180;DHT22;9722;48.754;8.868;2023-04-24T20:12:53;8.60;82.60
19180;DHT22;9722;48.754;8.868;2023-04-24T20:16:14;8.60;82.80
19180;DHT22;9722;48.754;8.868;2023-04-24T20:19:35;8.50;83.00
19180;DHT22;9722;48.754;8.868;2023-04-24T20:22:55;8.40;83.30
19180;DHT22;9722;48.754;8.868;2023-04-24T20:26:16;8.40;83.70
19180;DHT22;9722;48.754;8.868;2023-04-24T20:29:36;8.30;83.90
19180;DHT22;9722;48.754;8.868;2023-04-24T20:32:57;8.30;84.20
19180;DHT22;9722;48.754;8.868;2023-04-24T20:36:18;8.20;84.50
19180;DHT22;9722;48.754;8.868;2023-04-24T20:39:38;8.20;84.90
19180;DHT22;9722;48.754;8.868;2023-04-24T20:42:59;8.10;85.00
19180;DHT22;9722;48.754;8.868;2023-04-24T20:46:20;8.10;85.20
19180;DHT22;9722;48.754;8.868;2023-04-24T20:49:41;8.10;85.20
19180;DHT22;9722;48.754;8.868;2023-04-24T20:53:01;8.10;85.50
19180;DHT22;9722;48.754;8.868;2023-04-24T20:56:22;8.10;85.50
19180;DHT22;9722;48.754;8.868;2023-04-24T20:59:44;8.10;85.70
19180;DHT22;9722;48.754;8.868;2023-04-24T21:03:04;8.10;85.70
19180;DHT22;9722;48.754;8.868;2023-04-24T21:06:25;8.00;85.70
19180;DHT22;9722;48.754;8.868;2023-04-24T21:09:45;8.00;85.60
19180;DHT22;9722;48.754;8.868;2023-04-24T21:13:06;8.00;85.60
19180;DHT22;9722;48.754;8.868;2023-04-24T21:16:26;8.00;85.70
19180;DHT22;9722;48.754;8.868;2023-04-24T21:19:47;8.00;85.80
19180;DHT22;9722;48.754;8.868;2023-04-24T21:23:08;8.00;86.10
19180;DHT22;9722;48.754;8.868;2023-04-24T21:26:28;7.90;86.20
19180;DHT22;9722;48.754;8.868;2023-04-24T21:29:49;7.90;86.30
19180;DHT22;9722;48.754;8.868;2023-04-24T21:33:10;7.80;86.40
19180;DHT22;9722;48.754;8.868;2023-04-24T21:36:31;7.80;86.70
19180;DHT22;9722;48.754;8.868;2023-04-24T21:39:52;7.80;86.70
19180;DHT22;9722;48.754;8.868;2023-04-24T21:43:12;7.80;87.10